createdAt,value
2019-02-09T00:00:27.264Z,101058.95
2019-02-09T00:03:08.215Z,101065.27
2019-02-09T00:05:49.091Z,101065.27
2019-02-09T00:08:30.058Z,101073.53
2019-02-09T00:11:10.716Z,101077.20
2019-02-09T00:13:51.380Z,101074.56
2019-02-09T00:16:31.872Z,101079.30
2019-02-09T00:19:12.553Z,101090.97
2019-02-09T00:21:53.509Z,101095.04
2019-02-09T00:24:34.469Z,101095.56
2019-02-09T00:27:15.556Z,101105.28
2019-02-09T00:29:56.213Z,101108.20
2019-02-09T00:32:37.351Z,101115.03
2019-02-09T00:35:18.312Z,101121.17
2019-02-09T00:37:59.370Z,101125.75
2019-02-09T00:40:40.474Z,101128.55
2019-02-09T00:43:21.197Z,101138.64
2019-02-09T00:46:04.358Z,101146.20
2019-02-09T00:48:44.886Z,101153.15
2019-02-09T00:51:24.762Z,101159.84
2019-02-09T00:54:05.677Z,101165.13
2019-02-09T00:56:46.354Z,101155.30
2019-02-09T00:59:27.315Z,101163.91
2019-02-09T01:02:08.218Z,101168.00
2019-02-09T01:04:49.187Z,101171.60
2019-02-09T01:07:30.543Z,101183.60
2019-02-09T01:10:10.814Z,101188.61
2019-02-09T01:12:52.199Z,101198.56
2019-02-09T01:15:33.094Z,101204.06
2019-02-09T01:18:13.977Z,101213.27
2019-02-09T01:20:54.996Z,101225.67
2019-02-09T01:23:36.241Z,101229.61
2019-02-09T01:26:16.707Z,101229.10
2019-02-09T01:28:57.427Z,101235.20
2019-02-09T01:31:38.604Z,101234.24
2019-02-09T01:34:19.246Z,101241.08
2019-02-09T01:37:00.375Z,101239.47
2019-02-09T01:39:41.363Z,101243.09
2019-02-09T01:42:22.631Z,101251.47
2019-02-09T01:45:03.366Z,101260.59
2019-02-09T01:47:43.682Z,101265.22
2019-02-09T01:50:25.205Z,101265.91
2019-02-09T01:53:05.997Z,101273.45
2019-02-09T01:55:46.788Z,101269.26
2019-02-09T01:58:28.437Z,101267.59
2019-02-09T02:01:10.003Z,101259.77
2019-02-09T02:03:51.113Z,101260.13
2019-02-09T02:06:32.586Z,101265.39
2019-02-09T02:09:13.342Z,101275.32
2019-02-09T02:11:54.551Z,101274.86
2019-02-09T02:14:35.757Z,101282.69
2019-02-09T02:17:16.466Z,101286.99
2019-02-09T02:19:57.355Z,101300.54
2019-02-09T02:22:38.337Z,101308.82
2019-02-09T02:25:19.418Z,101309.50
2019-02-09T02:28:00.866Z,101312.68
2019-02-09T02:30:42.152Z,101311.39
2019-02-09T02:33:23.130Z,101311.80
2019-02-09T02:36:03.975Z,101321.92
2019-02-09T02:38:45.023Z,101317.09
2019-02-09T02:41:25.764Z,101314.92
2019-02-09T02:44:06.422Z,101319.44
2019-02-09T02:46:47.713Z,101320.92
2019-02-09T02:49:29.294Z,101337.48
2019-02-09T02:52:10.503Z,101336.27
2019-02-09T02:54:51.230Z,101347.97
2019-02-09T02:57:32.098Z,101348.09
2019-02-09T03:00:13.192Z,101356.66
2019-02-09T03:02:54.623Z,101355.86
2019-02-09T03:05:36.597Z,101365.52
2019-02-09T03:08:17.532Z,101369.80
2019-02-09T03:10:58.524Z,101367.89
2019-02-09T03:13:39.291Z,101367.42
2019-02-09T03:16:20.457Z,101368.63
2019-02-09T03:19:01.751Z,101384.14
2019-02-09T03:21:42.713Z,101381.34
2019-02-09T03:24:23.121Z,101389.13
2019-02-09T03:27:04.044Z,101395.20
2019-02-09T03:29:44.828Z,101393.75
2019-02-09T03:32:26.147Z,101387.49
2019-02-09T03:35:06.785Z,101400.80
2019-02-09T03:37:47.522Z,101404.27
2019-02-09T03:40:28.748Z,101409.57
2019-02-09T03:43:09.994Z,101411.20
2019-02-09T03:45:50.960Z,101418.07
2019-02-09T03:48:31.678Z,101414.78
2019-02-09T03:51:13.103Z,101407.72
2019-02-09T03:53:54.170Z,101412.97
2019-02-09T03:56:34.774Z,101412.20
2019-02-09T03:59:16.096Z,101402.86
2019-02-09T04:01:56.802Z,101395.88
2019-02-09T04:04:37.782Z,101394.56
2019-02-09T04:07:18.977Z,101400.25
2019-02-09T04:10:00.244Z,101409.91
2019-02-09T04:12:41.315Z,101420.55
2019-02-09T04:15:22.465Z,101430.17
2019-02-09T04:18:03.756Z,101427.88
2019-02-09T04:20:44.155Z,101426.13
2019-02-09T04:23:25.014Z,101413.15
2019-02-09T04:26:05.534Z,101431.52
2019-02-09T04:28:46.960Z,101427.44
2019-02-09T04:31:27.965Z,101419.95
2019-02-09T04:34:08.907Z,101411.34
2019-02-09T04:36:50.145Z,101418.27
2019-02-09T04:39:31.146Z,101413.08
2019-02-09T04:42:11.741Z,101416.97
2019-02-09T04:44:52.730Z,101415.55
2019-02-09T04:47:33.374Z,101415.66
2019-02-09T04:50:13.671Z,101414.85
2019-02-09T04:52:54.775Z,101413.95
2019-02-09T04:55:35.698Z,101413.70
2019-02-09T04:58:16.646Z,101411.20
2019-02-09T05:00:57.604Z,101411.58
2019-02-09T05:03:37.875Z,101412.75
2019-02-09T05:06:18.331Z,101412.08
2019-02-09T05:08:58.891Z,101408.58
2019-02-09T05:11:40.091Z,101409.73
2019-02-09T05:14:21.032Z,101402.36
2019-02-09T05:17:01.413Z,101401.08
2019-02-09T05:19:42.631Z,101394.06
2019-02-09T05:22:23.347Z,101391.91
2019-02-09T05:25:04.325Z,101384.52
2019-02-09T05:27:46.377Z,101388.48
2019-02-09T05:30:27.913Z,101392.66
2019-02-09T05:33:09.042Z,101385.09
2019-02-09T05:39:05.285Z,101383.42
2019-02-09T05:41:47.052Z,101380.84
2019-02-09T05:44:28.226Z,101377.43
2019-02-09T06:00:34.270Z,101344.69
2019-02-09T06:03:15.858Z,101341.93
2019-02-09T06:05:56.816Z,101328.81
2019-02-09T06:08:37.364Z,101331.52
2019-02-09T06:11:19.247Z,101328.93
2019-02-09T06:13:59.951Z,101324.61
2019-02-09T06:16:40.878Z,101322.83
2019-02-09T06:19:21.897Z,101322.39
2019-02-09T06:22:02.877Z,101313.72
2019-02-09T06:24:44.047Z,101305.51
2019-02-09T06:27:25.028Z,101305.69
2019-02-09T06:30:05.672Z,101310.19
2019-02-09T06:32:46.298Z,101299.94
2019-02-09T06:35:27.335Z,101294.80
2019-02-09T06:38:07.716Z,101283.58
2019-02-09T06:40:49.194Z,101283.62
2019-02-09T06:43:30.556Z,101279.52
2019-02-09T06:46:14.330Z,101276.45
2019-02-09T06:48:55.273Z,101283.30
2019-02-09T06:51:35.334Z,101278.64
2019-02-09T06:54:16.297Z,101272.45
2019-02-09T06:56:56.862Z,101271.15
2019-02-09T06:59:37.981Z,101262.61
2019-02-09T07:02:19.234Z,101263.86
2019-02-09T07:05:00.127Z,101254.62
2019-02-09T07:07:40.786Z,101249.81
2019-02-09T07:10:21.446Z,101246.61
2019-02-09T07:13:02.089Z,101238.90
2019-02-09T07:15:42.766Z,101241.00
2019-02-09T07:18:24.061Z,101242.42
2019-02-09T07:21:05.175Z,101243.78
2019-02-09T07:23:45.885Z,101234.23
2019-02-09T07:26:26.858Z,101226.89
2019-02-09T07:29:07.766Z,101225.95
2019-02-09T07:31:48.280Z,101222.86
2019-02-09T07:34:30.122Z,101215.53
2019-02-09T07:37:11.270Z,101212.56
2019-02-09T07:39:52.024Z,101204.72
2019-02-09T07:42:33.178Z,101201.25
2019-02-09T07:45:14.181Z,101201.59
2019-02-09T07:47:54.841Z,101199.41
2019-02-09T07:50:35.417Z,101192.72
2019-02-09T07:53:16.091Z,101186.98
2019-02-09T07:55:56.737Z,101178.07
2019-02-09T08:14:58.507Z,101162.98
2019-02-09T08:17:39.473Z,101158.27
2019-02-09T08:20:20.185Z,101155.86
2019-02-09T08:23:01.102Z,101157.75
2019-02-09T08:25:42.625Z,101150.84
2019-02-09T08:28:23.576Z,101142.59
2019-02-09T08:31:03.954Z,101152.58
2019-02-09T08:33:44.539Z,101151.03
2019-02-09T08:36:30.679Z,101137.08
2019-02-09T08:39:12.541Z,101146.70
2019-02-09T08:41:53.361Z,101142.51
2019-02-09T08:44:35.111Z,101137.50
2019-02-09T08:47:16.971Z,101141.34
2019-02-09T08:49:57.398Z,101138.50
2019-02-09T08:52:38.627Z,101135.71
2019-02-09T08:55:19.901Z,101128.37
2019-02-09T08:58:01.844Z,101124.80
2019-02-09T09:00:42.773Z,101132.31
2019-02-09T09:03:25.499Z,101137.86
2019-02-09T09:06:05.720Z,101131.23
2019-02-09T09:08:46.749Z,101117.53
2019-02-09T09:11:28.051Z,101117.16
2019-02-09T09:14:08.627Z,101111.61
2019-02-09T09:16:49.851Z,101108.00
2019-02-09T09:19:30.572Z,101103.25
2019-02-09T09:22:11.506Z,101106.66
2019-02-09T09:24:51.696Z,101105.06
2019-02-09T09:27:33.715Z,101113.52
2019-02-09T09:30:13.778Z,101106.27
2019-02-09T09:32:54.339Z,101106.38
2019-02-09T09:35:34.698Z,101109.56
2019-02-09T09:38:15.137Z,101104.65
2019-02-09T09:40:55.853Z,101105.00
2019-02-09T09:43:35.871Z,101106.54
2019-02-09T09:46:15.941Z,101109.67
2019-02-09T09:48:56.037Z,101104.17
2019-02-09T09:51:36.339Z,101101.55
2019-02-09T09:54:16.524Z,101104.92
2019-02-09T09:56:56.977Z,101108.63
2019-02-09T09:59:37.842Z,101103.59
2019-02-09T10:02:18.851Z,101104.93
2019-02-09T10:04:59.186Z,101103.33
2019-02-09T10:07:39.885Z,101101.75
2019-02-09T10:10:20.326Z,101101.59
2019-02-09T10:13:01.350Z,101102.50
2019-02-09T10:15:41.863Z,101101.67
2019-02-09T10:18:22.438Z,101105.22
2019-02-09T10:21:03.412Z,101106.71
2019-02-09T10:23:45.416Z,101108.95
2019-02-09T10:26:26.584Z,101108.13
2019-02-09T10:29:08.491Z,101110.16
2019-02-09T10:31:49.666Z,101116.70
2019-02-09T10:34:30.943Z,101118.02
2019-02-09T10:37:11.837Z,101117.03
2019-02-09T10:39:53.175Z,101122.30
2019-02-09T10:42:34.154Z,101127.01
2019-02-09T10:45:14.793Z,101122.11
2019-02-09T10:47:55.951Z,101125.69
2019-02-09T10:50:37.028Z,101131.14
2019-02-09T10:53:18.156Z,101134.32
2019-02-09T10:55:59.603Z,101132.56
2019-02-09T10:58:40.538Z,101138.27
2019-02-09T11:01:22.157Z,101142.51
2019-02-09T11:04:02.997Z,101144.44
2019-02-09T11:06:44.156Z,101140.50
2019-02-09T11:09:24.476Z,101140.25
2019-02-09T11:12:05.281Z,101142.66
2019-02-09T11:14:46.360Z,101141.52
2019-02-09T11:17:27.344Z,101143.60
2019-02-09T11:20:07.895Z,101138.64
2019-02-09T11:22:48.657Z,101134.56
2019-02-09T11:25:29.829Z,101143.56
2019-02-09T11:28:10.820Z,101133.09
2019-02-09T11:30:51.746Z,101136.59
2019-02-09T11:33:32.466Z,101134.47
2019-02-09T11:36:13.649Z,101137.48
2019-02-09T11:38:55.615Z,101146.00
2019-02-09T11:41:36.533Z,101150.34
2019-02-09T11:44:17.278Z,101149.69
2019-02-09T11:46:58.470Z,101156.69
2019-02-09T11:49:39.029Z,101164.16
2019-02-09T11:52:19.902Z,101163.48
2019-02-09T11:55:00.675Z,101164.97
2019-02-09T11:57:41.685Z,101172.45
2019-02-09T12:00:22.648Z,101166.12
2019-02-09T12:03:13.892Z,101165.78
2019-02-09T12:05:45.189Z,101173.59
2019-02-09T12:08:25.815Z,101174.08
2019-02-09T12:11:06.817Z,101178.48
2019-02-09T12:13:55.022Z,101180.58
2019-02-09T12:16:28.735Z,101177.70
2019-02-09T12:19:09.691Z,101178.80
2019-02-09T12:21:50.937Z,101170.14
2019-02-09T12:24:31.905Z,101168.97
2019-02-09T12:27:12.166Z,101163.76
2019-02-09T12:29:53.504Z,101165.02
2019-02-09T12:32:34.522Z,101160.95
2019-02-09T12:35:15.734Z,101164.19
2019-02-09T12:37:56.059Z,101169.95
2019-02-09T12:40:36.696Z,101167.38
2019-02-09T12:43:17.656Z,101175.28
2019-02-09T12:45:58.934Z,101174.63
2019-02-09T12:48:39.962Z,101183.80
2019-02-09T12:51:20.568Z,101194.48
2019-02-09T12:54:01.814Z,101198.78
2019-02-09T12:56:42.818Z,101203.27
2019-02-09T12:59:23.604Z,101223.05
2019-02-09T13:02:05.341Z,101230.27
2019-02-09T13:04:46.254Z,101238.41
2019-02-09T13:07:27.589Z,101249.02
2019-02-09T13:10:08.318Z,101258.14
2019-02-09T13:12:49.131Z,101262.83
2019-02-09T13:15:30.151Z,101269.48
2019-02-09T13:18:11.427Z,101276.16
2019-02-09T13:20:52.352Z,101276.45
2019-02-09T13:23:33.279Z,101290.42
2019-02-09T13:26:14.272Z,101290.94
2019-02-09T13:28:55.896Z,101295.25
2019-02-09T13:31:36.213Z,101294.76
2019-02-09T13:34:16.978Z,101284.69
2019-02-09T13:36:57.847Z,101282.53
2019-02-09T13:39:38.647Z,101281.81
2019-02-09T13:42:19.428Z,101285.95
2019-02-09T13:45:00.417Z,101309.44
2019-02-09T13:47:41.214Z,101318.05
2019-02-09T13:50:22.304Z,101328.30
2019-02-09T13:53:02.998Z,101332.05
2019-02-09T13:55:43.667Z,101343.05
2019-02-09T13:58:24.609Z,101354.47
2019-02-09T14:01:05.267Z,101366.47
2019-02-09T14:03:46.820Z,101361.44
2019-02-09T14:06:27.847Z,101364.99
2019-02-09T14:09:08.497Z,101368.63
2019-02-09T14:11:49.346Z,101376.59
2019-02-09T14:14:29.826Z,101370.39
2019-02-09T14:17:10.753Z,101375.85
2019-02-09T14:19:53.327Z,101371.97
2019-02-09T14:22:34.798Z,101379.83
2019-02-09T14:25:15.294Z,101391.36
2019-02-09T14:27:56.543Z,101394.42
2019-02-09T14:30:37.995Z,101402.91
2019-02-09T14:33:18.711Z,101406.88
2019-02-09T14:35:59.405Z,101415.78
2019-02-09T14:38:40.879Z,101409.34
2019-02-09T14:41:21.967Z,101416.77
2019-02-09T14:44:03.118Z,101426.13
2019-02-09T14:46:43.490Z,101432.64
2019-02-09T14:49:24.442Z,101437.22
2019-02-09T14:52:04.808Z,101443.77
2019-02-09T14:54:45.783Z,101444.88
2019-02-09T14:57:26.938Z,101451.08
2019-02-09T15:00:07.650Z,101449.06
2019-02-09T15:02:53.512Z,101447.97
2019-02-09T15:05:30.192Z,101457.05
2019-02-09T15:08:11.097Z,101457.47
2019-02-09T15:10:51.968Z,101456.55
2019-02-09T15:13:33.126Z,101457.33
2019-02-09T15:16:13.980Z,101468.88
2019-02-09T15:18:55.067Z,101469.03
2019-02-09T15:21:35.612Z,101471.34
2019-02-09T15:24:16.875Z,101477.40
2019-02-09T15:26:57.835Z,101484.32
2019-02-09T15:29:38.856Z,101485.20
2019-02-09T15:32:20.070Z,101477.47
2019-02-09T15:35:01.408Z,101494.28
2019-02-09T15:37:42.379Z,101505.67
2019-02-09T15:40:24.583Z,101505.52
2019-02-09T15:43:05.559Z,101507.20
2019-02-09T15:45:46.815Z,101496.03
2019-02-09T15:48:27.896Z,101500.34
2019-02-09T15:51:09.405Z,101497.55
2019-02-09T15:53:50.621Z,101503.30
2019-02-09T15:56:31.268Z,101510.19
2019-02-09T15:59:11.912Z,101510.48
2019-02-09T16:01:52.398Z,101503.22
2019-02-09T16:04:33.498Z,101503.36
2019-02-09T16:07:14.235Z,101506.84
2019-02-09T16:09:55.096Z,101514.86
2019-02-09T16:12:35.877Z,101516.93
2019-02-09T16:15:16.719Z,101521.73
2019-02-09T16:17:57.827Z,101514.28
2019-02-09T16:20:38.972Z,101519.92
2019-02-09T16:23:20.263Z,101528.43
2019-02-09T16:26:01.173Z,101533.47
2019-02-09T16:28:41.905Z,101546.95
2019-02-09T16:31:22.898Z,101538.11
2019-02-09T16:34:03.574Z,101544.16
2019-02-09T16:36:44.437Z,101542.48
2019-02-09T16:39:25.223Z,101545.56
2019-02-09T16:42:06.966Z,101549.73
2019-02-09T16:44:48.219Z,101557.34
2019-02-09T16:47:29.212Z,101559.70
2019-02-09T16:50:09.405Z,101561.63
2019-02-09T16:52:49.854Z,101559.12
2019-02-09T16:55:30.824Z,101546.41
2019-02-09T16:58:16.538Z,101549.94
2019-02-09T17:00:59.484Z,101558.97
2019-02-09T17:03:40.403Z,101555.72
2019-02-09T17:06:23.038Z,101554.36
2019-02-09T17:09:02.617Z,101554.78
2019-02-09T17:11:43.970Z,101555.42
2019-02-09T17:14:24.618Z,101551.35
2019-02-09T17:17:05.488Z,101547.80
2019-02-09T17:19:46.923Z,101546.83
2019-02-09T17:22:30.784Z,101542.72
2019-02-09T17:25:16.907Z,101537.14
2019-02-09T17:28:04.314Z,101530.66
2019-02-09T17:30:46.472Z,101526.84
2019-02-09T17:33:26.975Z,101524.83
2019-02-09T17:36:07.840Z,101516.98
2019-02-09T17:38:51.133Z,101513.84
2019-02-09T17:41:32.935Z,101512.50
2019-02-09T17:44:14.044Z,101511.24
2019-02-09T17:46:54.620Z,101522.77
2019-02-09T17:49:35.257Z,101512.23
2019-02-09T17:52:15.636Z,101510.56
2019-02-09T17:54:56.423Z,101509.31
2019-02-09T17:57:37.287Z,101513.17
2019-02-09T18:00:18.014Z,101510.45
2019-02-09T18:02:58.814Z,101515.47
2019-02-09T18:05:39.513Z,101506.66
2019-02-09T18:08:20.083Z,101512.56
2019-02-09T18:11:00.870Z,101508.39
2019-02-09T18:13:42.294Z,101505.13
2019-02-09T18:16:23.407Z,101508.12
2019-02-09T18:19:04.103Z,101505.54
2019-02-09T18:21:45.958Z,101503.75
2019-02-09T18:24:27.422Z,101502.57
2019-02-09T18:27:08.101Z,101500.90
2019-02-09T18:29:48.846Z,101505.31
2019-02-09T18:32:29.746Z,101500.16
2019-02-09T18:37:52.913Z,101496.19
2019-02-09T18:40:34.280Z,101508.37
2019-02-09T18:43:15.228Z,101507.77
2019-02-09T18:45:57.757Z,101502.62
2019-02-09T18:48:37.996Z,101501.67
2019-02-09T18:51:18.954Z,101492.42
2019-02-09T18:53:59.493Z,101489.20
2019-02-09T18:56:40.938Z,101487.06
2019-02-09T18:59:21.869Z,101487.64
2019-02-09T19:02:02.368Z,101491.02
2019-02-09T19:04:43.658Z,101483.48
2019-02-09T19:07:23.896Z,101486.72
2019-02-09T19:10:04.971Z,101484.78
2019-02-09T19:12:46.084Z,101477.08
2019-02-09T19:15:26.709Z,101476.86
2019-02-09T19:18:07.590Z,101471.81
2019-02-09T19:20:48.695Z,101467.28
2019-02-09T19:23:29.515Z,101468.14
2019-02-09T19:26:10.637Z,101462.30
2019-02-09T19:28:51.422Z,101469.12
2019-02-09T19:31:32.157Z,101467.23
2019-02-09T19:34:13.019Z,101462.71
2019-02-09T19:36:53.409Z,101470.86
2019-02-09T19:39:34.320Z,101459.82
2019-02-09T19:42:15.646Z,101465.00
2019-02-09T19:44:56.878Z,101470.28
2019-02-09T19:47:37.321Z,101467.41
2019-02-09T19:50:18.367Z,101454.45
2019-02-09T19:52:58.873Z,101454.93
2019-02-09T19:55:39.792Z,101455.06
2019-02-09T19:58:21.042Z,101446.08
2019-02-09T20:01:02.636Z,101445.91
2019-02-09T20:03:43.393Z,101457.65
2019-02-09T20:06:24.027Z,101455.16
2019-02-09T20:09:04.452Z,101450.58
2019-02-09T20:11:45.767Z,101440.87
2019-02-09T20:14:26.497Z,101446.27
2019-02-09T20:17:07.561Z,101446.80
2019-02-09T20:19:47.829Z,101437.66
2019-02-09T20:22:28.124Z,101434.19
2019-02-09T20:25:08.388Z,101422.33
2019-02-09T20:27:49.527Z,101428.08
2019-02-09T20:30:30.424Z,101426.27
2019-02-09T20:33:10.952Z,101426.24
2019-02-09T20:35:51.387Z,101419.78
2019-02-09T20:38:32.014Z,101419.89
2019-02-09T20:41:12.767Z,101424.19
2019-02-09T20:43:53.657Z,101419.48
2019-02-09T20:46:34.292Z,101417.06
2019-02-09T20:49:14.805Z,101416.97
2019-02-09T20:51:55.647Z,101415.18
2019-02-09T20:54:36.074Z,101409.41
2019-02-09T20:57:16.152Z,101398.40
2019-02-09T20:59:56.815Z,101401.28
2019-02-09T21:02:37.496Z,101399.82
2019-02-09T21:05:18.350Z,101400.41
2019-02-09T21:07:59.456Z,101395.85
2019-02-09T21:10:40.229Z,101398.94
2019-02-09T21:13:21.226Z,101398.34
2019-02-09T21:16:02.961Z,101394.48
2019-02-09T21:18:42.555Z,101389.14
2019-02-09T21:21:22.707Z,101382.31
2019-02-09T21:24:02.592Z,101387.09
2019-02-09T21:26:42.623Z,101385.76
2019-02-09T21:29:22.994Z,101390.06
2019-02-09T21:32:03.151Z,101384.59
2019-02-09T21:34:43.267Z,101397.01
2019-02-09T21:37:23.169Z,101392.10
2019-02-09T21:40:03.260Z,101391.29
2019-02-09T21:42:43.349Z,101390.06
2019-02-09T21:45:23.338Z,101395.81
2019-02-09T21:48:03.478Z,101400.50
2019-02-09T21:50:43.464Z,101401.70
2019-02-09T21:53:23.577Z,101396.69
2019-02-09T21:56:03.546Z,101401.38
2019-02-09T21:58:44.174Z,101405.09
2019-02-09T22:01:25.005Z,101406.88
2019-02-09T22:04:05.497Z,101409.52
2019-02-09T22:06:46.312Z,101409.03
2019-02-09T22:09:26.742Z,101415.47
2019-02-09T22:12:07.412Z,101412.27
2019-02-09T22:14:48.013Z,101416.08
2019-02-09T22:17:28.584Z,101411.03
2019-02-09T22:20:08.907Z,101415.81
2019-02-09T22:22:49.988Z,101414.35
2019-02-09T22:25:30.506Z,101411.75
2019-02-09T22:28:11.283Z,101420.06
2019-02-09T22:30:51.555Z,101420.42
2019-02-09T22:33:32.186Z,101415.41
2019-02-09T22:36:12.492Z,101415.16
2019-02-09T22:38:53.303Z,101416.39
2019-02-09T22:41:34.405Z,101411.45
2019-02-09T22:44:15.038Z,101418.03
2019-02-09T22:46:55.027Z,101417.32
2019-02-09T22:49:35.732Z,101418.36
2019-02-09T22:52:16.428Z,101425.69
2019-02-09T22:54:57.151Z,101425.84
2019-02-09T22:57:38.153Z,101428.44
2019-02-09T23:00:19.137Z,101441.59
2019-02-09T23:02:59.800Z,101451.28
2019-02-09T23:05:40.563Z,101449.09
2019-02-09T23:08:21.437Z,101456.03
2019-02-09T23:11:01.767Z,101459.88
2019-02-09T23:13:42.081Z,101455.82
2019-02-09T23:16:22.507Z,101452.87
2019-02-09T23:19:03.305Z,101456.88
2019-02-09T23:21:43.956Z,101459.19
2019-02-09T23:24:24.882Z,101462.66
2019-02-09T23:27:05.517Z,101477.09
2019-02-09T23:29:46.565Z,101489.83
2019-02-09T23:32:26.925Z,101495.43
2019-02-09T23:35:07.586Z,101494.71
2019-02-09T23:37:48.165Z,101494.12
2019-02-09T23:40:28.738Z,101503.09
2019-02-09T23:43:09.391Z,101508.95
2019-02-09T23:45:50.265Z,101508.20
2019-02-09T23:48:30.623Z,101507.72
2019-02-09T23:51:11.014Z,101513.09
2019-02-09T23:53:51.757Z,101525.09
2019-02-09T23:56:32.721Z,101519.83
2019-02-09T23:59:13.350Z,101529.73
